createdAt,value
2023-01-11T00:00:26.270Z,10.69
2023-01-11T00:02:59.836Z,10.79
2023-01-11T00:05:26.180Z,10.75
2023-01-11T00:07:52.549Z,10.79
2023-01-11T00:10:19.547Z,10.86
2023-01-11T00:12:46.043Z,10.78
2023-01-11T00:15:12.928Z,10.88
2023-01-11T00:17:39.947Z,10.79
2023-01-11T00:20:06.671Z,10.89
2023-01-11T00:22:33.329Z,10.77
2023-01-11T00:24:59.969Z,10.83
2023-01-11T00:27:26.355Z,10.99
2023-01-11T00:29:52.700Z,10.92
2023-01-11T00:32:19.051Z,10.99
2023-01-11T00:34:45.481Z,10.99
2023-01-11T00:37:11.819Z,10.95
2023-01-11T00:39:38.123Z,10.99
2023-01-11T00:42:23.378Z,11.03
2023-01-11T00:45:08.488Z,11.06
2023-01-11T00:47:53.357Z,11.02
2023-01-11T00:50:19.922Z,11.11
2023-01-11T00:52:46.407Z,11.15
2023-01-11T00:55:12.929Z,11.13
2023-01-11T00:57:39.268Z,11.10
2023-01-11T01:00:06.502Z,11.12
2023-01-11T01:02:33.880Z,11.11
2023-01-11T01:05:00.350Z,11.14
2023-01-11T01:07:26.827Z,11.18
2023-01-11T01:09:53.230Z,11.19
2023-01-11T01:12:40.326Z,11.20
2023-01-11T01:15:06.989Z,11.15
2023-01-11T01:17:33.625Z,11.20
2023-01-11T01:19:59.964Z,11.30
2023-01-11T01:22:26.386Z,11.25
2023-01-11T01:24:52.727Z,11.26
2023-01-11T01:27:19.989Z,11.31
2023-01-11T01:29:46.649Z,11.42
2023-01-11T01:32:13.061Z,11.36
2023-01-11T01:34:39.475Z,11.34
2023-01-11T01:37:08.358Z,11.43
2023-01-11T01:39:34.784Z,11.42
2023-01-11T01:42:01.307Z,11.44
2023-01-11T01:44:46.104Z,11.38
2023-01-11T01:47:16.128Z,11.44
2023-01-11T01:49:43.601Z,11.48
2023-01-11T01:52:13.309Z,11.48
2023-01-11T01:54:42.898Z,11.58
2023-01-11T01:57:11.178Z,11.51
2023-01-11T01:59:37.662Z,11.56
2023-01-11T02:02:04.068Z,11.59
2023-01-11T02:04:38.627Z,11.66
2023-01-11T02:07:15.993Z,11.66
2023-01-11T02:09:46.488Z,11.59
2023-01-11T02:12:15.092Z,11.57
2023-01-11T02:14:43.090Z,11.64
2023-01-11T02:17:10.019Z,11.63
2023-01-11T02:19:39.305Z,11.70
2023-01-11T02:22:16.849Z,11.75
2023-01-11T02:24:46.307Z,11.70
2023-01-11T02:27:18.893Z,11.76
2023-01-11T02:29:51.264Z,11.74
2023-01-11T02:32:32.236Z,11.72
2023-01-11T02:35:07.439Z,11.79
2023-01-11T02:37:52.522Z,11.79
2023-01-11T02:40:27.494Z,11.81
2023-01-11T02:43:29.638Z,11.79
2023-01-11T02:46:01.857Z,11.79
2023-01-11T02:48:46.963Z,11.88
2023-01-11T02:51:17.738Z,11.81
2023-01-11T02:53:47.557Z,11.84
2023-01-11T02:56:16.522Z,11.87
2023-01-11T02:58:44.650Z,11.88
2023-01-11T03:01:11.897Z,11.93
2023-01-11T03:03:38.282Z,11.94
2023-01-11T03:06:12.598Z,11.94
2023-01-11T03:08:44.514Z,11.91
2023-01-11T03:11:14.354Z,11.95
2023-01-11T03:13:40.636Z,11.99
2023-01-11T03:16:14.200Z,12.06
2023-01-11T03:18:48.659Z,12.00
2023-01-11T03:21:24.061Z,11.97
2023-01-11T03:24:12.143Z,12.06
2023-01-11T03:26:48.068Z,12.12
2023-01-11T03:29:26.737Z,12.08
2023-01-11T03:31:59.872Z,12.06
2023-01-11T03:34:32.182Z,12.14
2023-01-11T03:37:01.903Z,12.16
2023-01-11T03:39:36.402Z,12.14
2023-01-11T03:42:05.199Z,12.08
2023-01-11T03:44:35.078Z,12.15
2023-01-11T03:47:05.031Z,12.15
2023-01-11T03:49:36.165Z,12.15
2023-01-11T03:52:03.894Z,12.21
2023-01-11T03:54:31.624Z,12.26
2023-01-11T03:57:16.348Z,12.26
2023-01-11T03:59:42.771Z,12.25
2023-01-11T04:02:25.748Z,12.29
2023-01-11T04:04:52.185Z,12.33
2023-01-11T04:07:18.928Z,12.37
2023-01-11T04:09:45.466Z,12.40
2023-01-11T04:12:11.955Z,12.41
2023-01-11T04:14:38.273Z,12.46
2023-01-11T04:17:05.329Z,12.44
2023-01-11T04:19:31.869Z,12.41
2023-01-11T04:21:58.194Z,12.50
2023-01-11T04:24:24.579Z,12.54
2023-01-11T04:26:50.935Z,12.59
2023-01-11T04:29:17.478Z,12.51
2023-01-11T04:31:43.879Z,12.52
2023-01-11T04:34:11.203Z,12.55
2023-01-11T04:36:37.605Z,12.61
2023-01-11T04:39:06.370Z,12.60
2023-01-11T04:41:51.402Z,12.60
2023-01-11T04:44:17.762Z,12.59
2023-01-11T04:46:44.104Z,12.56
2023-01-11T04:49:10.435Z,12.59
2023-01-11T04:51:36.773Z,12.59
2023-01-11T04:54:03.138Z,12.60
2023-01-11T04:56:29.590Z,12.58
2023-01-11T04:58:55.927Z,12.58
2023-01-11T05:01:22.324Z,12.53
2023-01-11T05:03:48.709Z,12.54
2023-01-11T05:06:15.183Z,12.58
2023-01-11T05:08:45.410Z,12.52
2023-01-11T05:11:11.728Z,12.55
2023-01-11T05:13:44.987Z,12.54
2023-01-11T05:16:12.727Z,12.53
2023-01-11T05:18:40.329Z,12.55
2023-01-11T05:21:06.824Z,12.54
2023-01-11T05:23:33.989Z,12.53
2023-01-11T05:26:00.506Z,12.56
2023-01-11T05:28:26.947Z,12.52
2023-01-11T05:30:53.482Z,12.51
2023-01-11T05:33:19.885Z,12.47
2023-01-11T05:35:46.226Z,12.50
2023-01-11T05:38:12.719Z,12.48
2023-01-11T05:40:39.025Z,12.52
2023-01-11T05:43:05.623Z,12.49
2023-01-11T05:45:32.936Z,12.51
2023-01-11T05:47:59.450Z,12.50
2023-01-11T05:50:26.199Z,12.47
2023-01-11T05:52:54.943Z,12.49
2023-01-11T05:55:21.431Z,12.46
2023-01-11T05:57:47.931Z,12.45
2023-01-11T06:00:14.674Z,12.40
2023-01-11T06:02:44.124Z,12.38
2023-01-11T06:05:10.542Z,12.36
2023-01-11T06:07:37.395Z,12.33
2023-01-11T06:10:03.993Z,12.38
2023-01-11T06:12:30.372Z,12.34
2023-01-11T06:14:56.812Z,12.35
2023-01-11T06:17:24.262Z,12.33
2023-01-11T06:19:53.620Z,12.33
2023-01-11T06:22:19.978Z,12.33
2023-01-11T06:24:46.423Z,12.29
2023-01-11T06:27:12.758Z,12.32
2023-01-11T06:29:39.125Z,12.29
2023-01-11T06:32:05.775Z,12.28
2023-01-11T06:34:34.555Z,12.30
2023-01-11T06:37:00.869Z,12.27
2023-01-11T06:39:27.352Z,12.24
2023-01-11T06:41:53.714Z,12.23
2023-01-11T06:44:20.084Z,12.17
2023-01-11T06:46:46.422Z,12.17
2023-01-11T06:49:12.818Z,12.16
2023-01-11T06:51:39.261Z,12.14
2023-01-11T06:54:05.618Z,12.14
2023-01-11T06:56:31.914Z,12.14
2023-01-11T06:58:58.338Z,12.14
2023-01-11T07:01:26.238Z,12.05
2023-01-11T07:03:53.244Z,12.09
2023-01-11T07:06:22.248Z,12.04
2023-01-11T07:08:49.886Z,11.99
2023-01-11T07:11:16.461Z,12.05
2023-01-11T07:13:42.815Z,12.05
2023-01-11T07:16:09.298Z,11.99
2023-01-11T07:18:35.745Z,12.01
2023-01-11T07:21:02.740Z,12.01
2023-01-11T07:23:29.119Z,11.99
2023-01-11T07:25:58.057Z,11.96
2023-01-11T07:28:24.469Z,11.96
2023-01-11T07:30:58.541Z,11.91
2023-01-11T07:33:26.042Z,11.90
2023-01-11T07:35:52.819Z,11.83
2023-01-11T07:38:19.465Z,11.85
2023-01-11T07:40:45.899Z,11.84
2023-01-11T07:43:15.935Z,11.84
2023-01-11T07:45:46.423Z,11.80
2023-01-11T07:48:14.260Z,11.80
2023-01-11T07:50:44.454Z,11.81
2023-01-11T07:53:11.154Z,11.75
2023-01-11T07:55:39.746Z,11.74
2023-01-11T07:58:06.695Z,11.76
2023-01-11T08:00:33.034Z,11.71
2023-01-11T08:03:00.765Z,11.63
2023-01-11T08:05:27.173Z,11.66
2023-01-11T08:07:53.642Z,11.64
2023-01-11T08:10:20.026Z,11.64
2023-01-11T08:13:05.771Z,11.59
2023-01-11T08:15:32.855Z,11.53
2023-01-11T08:18:00.059Z,11.54
2023-01-11T08:20:29.391Z,11.48
2023-01-11T08:22:56.324Z,11.50
2023-01-11T08:25:25.178Z,11.46
2023-01-11T08:27:51.646Z,11.51
2023-01-11T08:30:18.109Z,11.52
2023-01-11T08:32:44.520Z,11.49
2023-01-11T08:35:10.946Z,11.48
2023-01-11T08:37:37.400Z,11.44
2023-01-11T08:40:04.087Z,11.38
2023-01-11T08:42:30.436Z,11.34
2023-01-11T08:44:59.211Z,11.39
2023-01-11T08:47:25.642Z,11.34
2023-01-11T08:49:52.147Z,11.35
2023-01-11T08:52:18.601Z,11.34
2023-01-11T08:54:45.016Z,11.34
2023-01-11T08:57:11.426Z,11.29
2023-01-11T08:59:37.845Z,11.19
2023-01-11T09:02:04.781Z,11.17
2023-01-11T09:04:31.317Z,11.19
2023-01-11T09:06:57.767Z,11.15
2023-01-11T09:09:24.268Z,11.12
2023-01-11T09:11:57.358Z,11.06
2023-01-11T09:14:24.826Z,11.07
2023-01-11T09:16:51.883Z,11.01
2023-01-11T09:19:18.278Z,10.99
2023-01-11T09:21:46.189Z,10.94
2023-01-11T09:24:12.745Z,10.95
2023-01-11T09:26:41.387Z,10.97
2023-01-11T09:29:11.236Z,10.93
2023-01-11T09:31:37.815Z,10.93
2023-01-11T09:34:04.933Z,10.90
2023-01-11T09:36:32.983Z,10.90
2023-01-11T09:39:01.761Z,10.84
2023-01-11T09:41:40.428Z,10.86
2023-01-11T09:44:14.168Z,10.92
2023-01-11T09:46:42.891Z,10.97
2023-01-11T09:49:16.953Z,11.12
2023-01-11T09:51:43.369Z,11.19
2023-01-11T09:54:15.702Z,11.34
2023-01-11T09:56:47.910Z,11.54
2023-01-11T09:59:24.731Z,11.43
2023-01-11T10:01:57.847Z,11.54
2023-01-11T10:04:37.417Z,11.66
2023-01-11T10:07:23.055Z,11.78
2023-01-11T10:18:29.967Z,12.26
2023-01-11T10:19:25.748Z,12.33
2023-01-11T10:21:54.661Z,12.40
2023-01-11T10:24:24.903Z,12.41
2023-01-11T10:26:54.145Z,12.38
2023-01-11T10:29:44.855Z,12.47
2023-01-11T10:32:40.053Z,12.37
2023-01-11T10:35:25.913Z,12.41
2023-01-11T10:38:10.194Z,12.52
2023-01-11T10:41:08.457Z,12.56
2023-01-11T10:43:38.820Z,12.47
2023-01-11T10:46:08.377Z,12.70
2023-01-11T10:48:37.955Z,12.83
2023-01-11T10:51:09.633Z,12.96
2023-01-11T10:53:43.575Z,12.98
2023-01-11T10:56:42.938Z,12.82
2023-01-11T10:59:30.461Z,12.74
2023-01-11T11:02:05.226Z,12.70
2023-01-11T11:04:34.645Z,12.62
2023-01-11T11:07:16.344Z,12.50
2023-01-11T11:09:46.225Z,12.36
2023-01-11T11:12:45.218Z,12.39
2023-01-11T11:15:18.766Z,12.30
2023-01-11T11:17:48.741Z,12.31
2023-01-11T11:20:17.236Z,12.35
2023-01-11T11:22:47.248Z,12.55
2023-01-11T11:25:22.976Z,12.67
2023-01-11T11:27:55.588Z,12.78
2023-01-11T11:30:26.811Z,12.97
2023-01-11T11:32:59.565Z,13.11
2023-01-11T11:35:32.682Z,13.19
2023-01-11T11:37:59.194Z,13.09
2023-01-11T11:40:35.264Z,12.93
2023-01-11T11:43:09.853Z,12.92
2023-01-11T11:45:36.449Z,12.94
2023-01-11T11:48:12.873Z,12.95
2023-01-11T11:50:45.276Z,12.89
2023-01-11T11:53:19.305Z,12.67
2023-01-11T11:55:45.689Z,12.52
2023-01-11T11:58:17.199Z,12.35
2023-01-11T12:00:45.963Z,12.07
2023-01-11T12:03:15.762Z,12.00
2023-01-11T12:05:57.026Z,11.94
2023-01-11T12:08:26.850Z,11.91
2023-01-11T12:10:58.575Z,11.84
2023-01-11T12:13:29.779Z,11.85
2023-01-11T12:16:00.471Z,11.93
2023-01-11T12:18:26.996Z,11.88
2023-01-11T12:20:53.861Z,11.81
2023-01-11T12:23:21.543Z,11.79
2023-01-11T12:25:47.870Z,11.89
2023-01-11T12:28:31.087Z,11.83
2023-01-11T12:31:07.131Z,11.91
2023-01-11T12:33:44.316Z,11.95
2023-01-11T12:36:20.003Z,12.07
2023-01-11T12:39:05.269Z,12.31
2023-01-11T12:41:43.978Z,12.63
2023-01-11T12:44:15.442Z,12.76
2023-01-11T12:46:48.448Z,12.89
2023-01-11T12:49:20.269Z,12.98
2023-01-11T12:51:54.835Z,13.11
2023-01-11T12:54:27.495Z,13.27
2023-01-11T12:57:05.728Z,13.46
2023-01-11T12:59:39.702Z,13.23
2023-01-11T13:02:22.337Z,13.22
2023-01-11T13:05:01.263Z,13.30
2023-01-11T13:07:33.161Z,13.29
2023-01-11T13:10:10.062Z,12.98
2023-01-11T13:12:42.600Z,12.98
2023-01-11T13:15:20.966Z,12.90
2023-01-11T13:17:52.540Z,12.74
2023-01-11T13:20:59.389Z,12.53
2023-01-11T13:23:35.783Z,12.75
2023-01-11T13:26:09.936Z,12.73
2023-01-11T13:28:39.155Z,12.73
2023-01-11T13:31:07.857Z,12.70
2023-01-11T13:33:35.850Z,12.67
2023-01-11T13:36:09.696Z,12.62
2023-01-11T13:38:46.542Z,12.62
2023-01-11T13:41:23.597Z,12.70
2023-01-11T13:43:55.224Z,12.51
2023-01-11T13:46:39.964Z,12.35
2023-01-11T13:49:12.447Z,12.25
2023-01-11T13:51:42.652Z,12.18
2023-01-11T13:54:14.064Z,12.06
2023-01-11T13:56:47.902Z,11.98
2023-01-11T13:59:20.354Z,11.94
2023-01-11T14:01:57.910Z,12.13
2023-01-11T14:04:30.609Z,12.11
2023-01-11T14:07:09.053Z,12.24
2023-01-11T14:09:41.495Z,12.14
2023-01-11T14:12:14.023Z,12.02
2023-01-11T14:14:59.044Z,11.82
2023-01-11T14:17:25.355Z,11.97
2023-01-11T14:20:06.711Z,12.00
2023-01-11T14:22:47.167Z,12.09
2023-01-11T14:25:13.477Z,12.11
2023-01-11T14:27:58.870Z,12.09
2023-01-11T14:30:42.013Z,12.04
2023-01-11T14:33:24.347Z,12.11
2023-01-11T14:36:05.773Z,12.11
2023-01-11T14:38:51.073Z,12.17
2023-01-11T14:41:36.279Z,12.13
2023-01-11T14:44:21.446Z,12.05
2023-01-11T14:46:47.819Z,11.96
2023-01-11T14:49:23.160Z,11.88
2023-01-11T14:52:01.114Z,11.80
2023-01-11T14:54:30.081Z,11.72
2023-01-11T14:56:57.393Z,11.82
2023-01-11T14:59:36.035Z,11.68
2023-01-11T15:02:07.233Z,11.63
2023-01-11T15:04:52.126Z,11.62
2023-01-11T15:07:33.259Z,11.58
2023-01-11T15:10:00.312Z,11.51
2023-01-11T15:12:37.378Z,11.40
2023-01-11T15:15:03.902Z,11.41
2023-01-11T15:17:49.508Z,11.33
2023-01-11T15:20:19.976Z,11.25
2023-01-11T15:22:46.598Z,11.24
2023-01-11T15:25:26.793Z,11.11
2023-01-11T15:27:53.671Z,11.02
2023-01-11T15:30:31.513Z,11.05
2023-01-11T15:33:16.937Z,11.03
2023-01-11T15:35:55.455Z,10.99
2023-01-11T15:38:21.869Z,10.94
2023-01-11T15:40:49.992Z,10.93
2023-01-11T15:43:31.462Z,10.90
2023-01-11T15:46:25.733Z,10.75
2023-01-11T15:48:55.122Z,10.68
2023-01-11T15:51:30.654Z,10.55
2023-01-11T15:54:09.267Z,10.61
2023-01-11T15:56:46.617Z,10.63
2023-01-11T15:59:21.932Z,10.64
2023-01-11T16:01:48.299Z,10.61
2023-01-11T16:04:28.678Z,10.62
2023-01-11T16:06:58.028Z,10.50
2023-01-11T16:09:43.954Z,10.55
2023-01-11T16:12:19.495Z,10.58
2023-01-11T16:14:45.916Z,10.57
2023-01-11T16:17:13.362Z,10.52
2023-01-11T16:19:42.739Z,10.50
2023-01-11T16:22:19.537Z,10.47
2023-01-11T16:24:47.809Z,10.44
2023-01-11T16:27:22.394Z,10.43
2023-01-11T16:29:49.742Z,10.45
2023-01-11T16:32:20.656Z,10.46
2023-01-11T16:34:50.204Z,10.44
2023-01-11T16:37:25.791Z,10.44
2023-01-11T16:39:56.550Z,10.38
2023-01-11T16:42:23.973Z,10.46
2023-01-11T16:44:55.753Z,10.42
2023-01-11T16:47:22.470Z,10.44
2023-01-11T16:49:52.026Z,10.48
2023-01-11T16:52:38.976Z,10.45
2023-01-11T16:55:24.023Z,10.42
2023-01-11T16:57:53.431Z,10.33
2023-01-11T17:00:24.485Z,10.38
2023-01-11T17:03:00.322Z,10.42
2023-01-11T17:05:26.989Z,10.44
2023-01-11T17:07:53.354Z,10.37
2023-01-11T17:10:24.107Z,10.38
2023-01-11T17:13:37.403Z,10.30
2023-01-11T17:16:08.375Z,10.41
2023-01-11T17:18:37.664Z,10.36
2023-01-11T17:21:04.201Z,10.42
2023-01-11T17:23:30.753Z,10.31
2023-01-11T17:25:57.608Z,10.38
2023-01-11T17:28:24.557Z,10.31
2023-01-11T17:30:52.039Z,10.30
2023-01-11T17:33:26.476Z,10.32
2023-01-11T17:35:53.810Z,10.34
2023-01-11T17:38:22.280Z,10.36
2023-01-11T17:40:48.796Z,10.34
2023-01-11T17:43:41.493Z,10.31
2023-01-11T17:46:09.457Z,10.30
2023-01-11T17:48:35.841Z,10.32
2023-01-11T17:51:03.058Z,10.25
2023-01-11T17:53:37.359Z,10.11
2023-01-11T17:56:07.710Z,10.24
2023-01-11T17:58:37.826Z,10.24
2023-01-11T18:01:04.344Z,10.18
2023-01-11T18:03:38.350Z,10.22
2023-01-11T18:06:18.607Z,10.20
2023-01-11T18:08:54.811Z,10.21
2023-01-11T18:11:26.588Z,10.28
2023-01-11T18:13:54.408Z,10.29
2023-01-11T18:16:21.687Z,10.19
2023-01-11T18:18:49.410Z,10.22
2023-01-11T18:21:34.351Z,10.15
2023-01-11T18:24:10.086Z,10.22
2023-01-11T18:26:56.722Z,10.23
2023-01-11T18:29:38.235Z,10.19
2023-01-11T18:32:05.799Z,10.22
2023-01-11T18:34:32.278Z,10.24
2023-01-11T18:36:59.251Z,10.28
2023-01-11T18:39:25.777Z,10.21
2023-01-11T18:42:07.237Z,10.25
2023-01-11T18:44:41.066Z,10.20
2023-01-11T18:47:33.551Z,10.13
2023-01-11T18:49:59.847Z,10.12
2023-01-11T18:52:27.443Z,10.13
2023-01-11T18:54:54.682Z,10.12
2023-01-11T18:57:22.671Z,10.16
2023-01-11T18:59:49.672Z,10.20
2023-01-11T19:02:43.172Z,10.07
2023-01-11T19:05:13.896Z,10.02
2023-01-11T19:07:40.360Z,9.96
2023-01-11T19:10:06.995Z,10.00
2023-01-11T19:12:33.416Z,10.00
2023-01-11T19:14:59.708Z,10.04
2023-01-11T19:17:29.079Z,9.94
2023-01-11T19:19:55.437Z,9.86
2023-01-11T19:22:24.537Z,9.83
2023-01-11T19:24:53.027Z,9.76
2023-01-11T19:27:19.484Z,9.79
2023-01-11T19:29:45.908Z,9.88
2023-01-11T19:32:12.312Z,9.79
2023-01-11T19:34:39.820Z,9.87
2023-01-11T19:37:06.149Z,9.81
2023-01-11T19:39:32.550Z,9.71
2023-01-11T19:42:01.320Z,9.67
2023-01-11T19:44:32.068Z,9.68
2023-01-11T19:47:10.533Z,9.61
2023-01-11T19:49:38.567Z,9.67
2023-01-11T19:52:13.916Z,9.56
2023-01-11T19:54:44.009Z,9.51
2023-01-11T19:57:15.167Z,9.51
2023-01-11T19:59:42.032Z,9.55
2023-01-11T20:02:09.793Z,9.58
2023-01-11T20:04:37.202Z,9.55
2023-01-11T20:07:03.683Z,9.67
2023-01-11T20:09:30.040Z,9.62
2023-01-11T20:11:58.798Z,9.54
2023-01-11T20:14:25.499Z,9.54
2023-01-11T20:16:51.855Z,9.49
2023-01-11T20:19:18.360Z,9.48
2023-01-11T20:21:44.756Z,9.50
2023-01-11T20:24:14.751Z,9.40
2023-01-11T20:26:41.568Z,9.39
2023-01-11T20:29:08.044Z,9.38
2023-01-11T20:31:35.524Z,9.43
2023-01-11T20:34:05.795Z,9.38
2023-01-11T20:36:34.852Z,9.45
2023-01-11T20:39:03.629Z,9.46
2023-01-11T20:41:48.920Z,9.40
2023-01-11T20:44:16.819Z,9.40
2023-01-11T20:46:45.145Z,9.40
2023-01-11T20:49:13.049Z,9.53
2023-01-11T20:51:39.788Z,9.49
2023-01-11T20:54:06.825Z,9.40
2023-01-11T20:56:33.625Z,9.48
2023-01-11T20:59:03.295Z,9.47
2023-01-11T21:01:30.400Z,9.46
2023-01-11T21:04:04.565Z,9.41
2023-01-11T21:06:31.917Z,9.49
2023-01-11T21:09:01.763Z,9.44
2023-01-11T21:11:28.781Z,9.36
2023-01-11T21:13:55.558Z,9.44
2023-01-11T21:16:24.273Z,9.45
2023-01-11T21:19:01.229Z,9.51
2023-01-11T21:21:28.559Z,9.50
2023-01-11T21:23:56.069Z,9.58
2023-01-11T21:26:25.387Z,9.51
2023-01-11T21:28:58.479Z,9.54
2023-01-11T21:31:25.503Z,9.65
2023-01-11T21:33:51.872Z,9.58
2023-01-11T21:36:20.128Z,9.59
2023-01-11T21:38:46.949Z,9.64
2023-01-11T21:41:40.464Z,9.59
2023-01-11T21:44:07.514Z,9.63
2023-01-11T21:46:34.194Z,9.58
2023-01-11T21:49:00.717Z,9.72
2023-01-11T21:51:29.715Z,9.71
2023-01-11T21:53:56.579Z,9.67
2023-01-11T21:56:23.460Z,9.78
2023-01-11T21:58:50.534Z,9.74
2023-01-11T22:01:19.375Z,9.76
2023-01-11T22:03:45.787Z,9.66
2023-01-11T22:06:12.360Z,9.66
2023-01-11T22:08:39.747Z,9.75
2023-01-11T22:11:06.745Z,9.67
2023-01-11T22:13:34.307Z,9.79
2023-01-11T22:16:01.667Z,9.78
2023-01-11T22:18:28.910Z,9.83
2023-01-11T22:20:55.477Z,9.84
2023-01-11T22:23:22.487Z,9.86
2023-01-11T22:25:48.961Z,9.86
2023-01-11T22:28:18.491Z,9.86
2023-01-11T22:30:44.826Z,9.84
2023-01-11T22:33:11.297Z,9.79
2023-01-11T22:35:37.708Z,9.87
2023-01-11T22:38:06.420Z,9.77
2023-01-11T22:40:32.726Z,9.89
2023-01-11T22:42:59.100Z,9.89
2023-01-11T22:45:25.558Z,9.80
2023-01-11T22:47:51.917Z,9.84
2023-01-11T22:50:18.328Z,9.88
2023-01-11T22:52:44.699Z,9.87
2023-01-11T22:55:11.048Z,9.84
2023-01-11T22:57:37.911Z,9.87
2023-01-11T23:00:05.128Z,9.77
2023-01-11T23:02:31.620Z,9.71
2023-01-11T23:04:58.000Z,9.79
2023-01-11T23:07:24.373Z,9.73
2023-01-11T23:09:50.685Z,9.70
2023-01-11T23:12:36.146Z,9.70
2023-01-11T23:15:02.557Z,9.66
2023-01-11T23:17:28.936Z,9.65
2023-01-11T23:19:55.312Z,9.60
2023-01-11T23:22:21.711Z,9.62
2023-01-11T23:24:48.062Z,9.59
2023-01-11T23:27:14.544Z,9.59
2023-01-11T23:29:40.909Z,9.60
2023-01-11T23:32:07.349Z,9.60
2023-01-11T23:34:33.749Z,9.59
2023-01-11T23:37:00.089Z,9.68
2023-01-11T23:39:26.597Z,9.62
2023-01-11T23:42:11.434Z,9.61
2023-01-11T23:44:37.839Z,9.61
2023-01-11T23:47:30.207Z,9.67
2023-01-11T23:50:00.190Z,9.65
2023-01-11T23:52:28.039Z,9.61
2023-01-11T23:54:54.856Z,9.68
2023-01-11T23:57:21.965Z,9.67
2023-01-11T23:59:48.406Z,9.67
